Time;durP1;ratioP1;P1;durP2;ratioP2;P2;SDS_P1;SDS_P2;PMS_P1;PMS_P2;Temp;Humidity;BMP_temperature;BMP_pressure;BME280_temperature;BME280_humidity;BME280_pressure;Samples;Min_cycle;Max_cycle;Signal;HPM_P1;HPM_P2
2023/06/22 00:02:27;;;;;;;33.20;30.08;;;16.20;89.40;;;;;;5031379;28;20374;-47
2023/06/22 00:04:54;;;;;;;;;;;16.10;89.40;;;;;;5035059;28;20021;-47
2023/06/22 00:07:25;;;;;;;37.45;33.35;;;16.20;89.40;;;;;;5029905;28;19913;-46
2023/06/22 00:09:52;;;;;;;35.47;31.90;;;16.20;89.40;;;;;;5044607;28;20491;-46
2023/06/22 00:12:19;;;;;;;37.20;33.30;;;16.20;89.60;;;;;;5054197;28;20040;-46
2023/06/22 00:14:46;;;;;;;37.63;34.00;;;16.20;89.50;;;;;;5054207;28;20140;-45
2023/06/22 00:17:13;;;;;;;34.90;31.50;;;16.10;89.80;;;;;;5050139;28;20072;-46
2023/06/22 00:19:40;;;;;;;37.45;33.75;;;16.10;90.00;;;;;;5053934;28;20017;-45
2023/06/22 00:22:07;;;;;;;34.42;31.23;;;16.10;89.80;;;;;;5031990;28;20044;-46
2023/06/22 00:24:34;;;;;;;33.30;30.10;;;16.10;90.00;;;;;;5033896;28;20021;-45
2023/06/22 00:27:01;;;;;;;34.03;30.65;;;16.10;90.00;;;;;;5032783;28;20029;-45
2023/06/22 00:29:29;;;;;;;37.40;33.50;;;16.10;90.00;;;;;;5043556;28;20086;-45
2023/06/22 00:31:55;;;;;;;37.78;34.10;;;16.10;90.20;;;;;;5046170;28;20103;-46
2023/06/22 00:34:23;;;;;;;38.70;34.97;;;16.10;90.30;;;;;;5052670;28;20520;-45
2023/06/22 00:36:53;;;;;;;42.50;38.03;;;16.10;90.30;;;;;;5039674;28;20420;-45
2023/06/22 00:39:20;;;;;;;42.92;38.55;;;16.20;90.20;;;;;;5052894;28;20029;-45
2023/06/22 00:41:47;;;;;;;37.58;33.88;;;16.10;90.10;;;;;;5051916;28;20044;-46
2023/06/22 00:44:14;;;;;;;35.33;31.83;;;16.10;90.30;;;;;;5053036;28;20033;-46
2023/06/22 00:46:43;;;;;;;33.13;30.02;;;16.10;90.30;;;;;;5044682;28;20034;-47
2023/06/22 00:49:12;;;;;;;38.03;34.40;;;16.10;90.20;;;;;;5047515;28;20041;-46
2023/06/22 00:51:45;;;;;;;32.73;29.40;;;16.00;90.00;;;;;;5051765;28;20287;-46
2023/06/22 00:54:13;;;;;;;30.98;28.13;;;16.00;90.00;;;;;;5052125;28;20138;-50
2023/06/22 00:56:45;;;;;;;34.13;31.02;;;16.00;90.10;;;;;;5053143;28;20370;-46
2023/06/22 00:59:17;;;;;;;29.92;26.98;;;15.90;89.90;;;;;;5049127;28;20040;-46
2023/06/22 01:01:43;;;;;;;34.17;30.75;;;15.90;89.90;;;;;;5042067;28;20111;-46
2023/06/22 01:04:09;;;;;;;31.23;28.27;;;15.90;90.00;;;;;;5052787;28;20080;-51
2023/06/22 01:06:45;;;;;;;28.88;26.08;;;15.90;89.90;;;;;;5045706;28;20377;-46
2023/06/22 01:09:21;;;;;;;32.00;29.00;;;15.90;90.00;;;;;;5052689;28;20051;-46
2023/06/22 01:12:11;;;;;;;35.63;32.25;;;15.80;89.80;;;;;;5050184;28;20335;-45
2023/06/22 01:15:04;;;;;;;33.75;30.08;;;15.70;89.80;;;;;;5044056;28;20025;-45
2023/06/22 01:17:32;;;;;;;30.50;27.50;;;15.70;89.90;;;;;;5046889;28;20041;-45
2023/06/22 01:20:08;;;;;;;36.13;32.63;;;15.70;89.90;;;;;;5029153;28;20183;-46
2023/06/22 01:23:06;;;;;;;36.03;32.53;;;15.60;89.90;;;;;;5038254;28;20033;-45
2023/06/22 01:26:06;;;;;;;39.55;35.85;;;15.60;90.20;;;;;;5039495;28;20071;-45
2023/06/22 01:28:55;;;;;;;36.90;33.30;;;15.60;90.00;;;;;;5052094;28;20044;-45
2023/06/22 01:31:29;;;;;;;32.63;29.55;;;15.60;90.20;;;;;;5046469;28;20028;-45
2023/06/22 01:34:03;;;;;;;36.60;33.08;;;15.60;90.20;;;;;;5049519;28;20083;-44
2023/06/22 01:36:31;;;;;;;34.75;31.52;;;15.50;90.10;;;;;;5038109;28;20513;-47
2023/06/22 01:39:03;;;;;;;34.13;30.95;;;15.50;90.10;;;;;;5050599;28;20060;-45
2023/06/22 01:41:33;;;;;;;36.50;33.05;;;15.50;90.10;;;;;;5052978;28;20033;-47
2023/06/22 01:44:11;;;;;;;34.80;31.50;;;15.50;90.10;;;;;;5049633;28;20041;-45
2023/06/22 01:46:40;;;;;;;34.30;30.90;;;15.50;90.20;;;;;;5050612;28;20028;-45
2023/06/22 01:49:07;;;;;;;34.78;31.45;;;15.50;90.00;;;;;;5050195;28;20343;-45
2023/06/22 01:51:35;;;;;;;36.95;33.45;;;15.40;90.00;;;;;;5028606;28;20041;-45
2023/06/22 01:54:03;;;;;;;38.30;34.47;;;15.40;90.10;;;;;;5051611;28;20031;-46
2023/06/22 01:56:30;;;;;;;38.55;34.72;;;15.40;90.20;;;;;;5013178;28;20339;-46
2023/06/22 01:59:39;;;;;;;34.97;31.35;;;15.40;90.20;;;;;;5012271;28;20029;-45
2023/06/22 02:02:09;;;;;;;35.33;31.83;;;15.40;90.20;;;;;;5039509;28;20064;-48
2023/06/22 02:04:56;;;;;;;;;;;15.40;90.10;;;;;;5023983;28;20124;-44
2023/06/22 02:07:28;;;;;;;29.48;26.73;;;15.40;90.10;;;;;;5053484;28;20358;-44
2023/06/22 02:10:00;;;;;;;32.45;29.42;;;15.40;90.10;;;;;;5055789;28;20122;-45
2023/06/22 02:12:27;;;;;;;30.10;27.45;;;15.40;90.50;;;;;;5055662;28;20033;-45
2023/06/22 02:14:54;;;;;;;31.52;28.60;;;15.30;90.40;;;;;;5043018;28;20037;-46
2023/06/22 02:17:21;;;;;;;31.58;28.75;;;15.30;90.40;;;;;;5025304;28;20045;-47
2023/06/22 02:19:47;;;;;;;26.60;24.10;;;15.40;90.20;;;;;;5024751;28;20029;-44
2023/06/22 02:22:13;;;;;;;29.45;26.85;;;15.30;90.20;;;;;;5035775;28;20037;-44
2023/06/22 02:24:40;;;;;;;29.70;27.00;;;15.30;90.10;;;;;;5031628;28;20034;-45
2023/06/22 02:27:07;;;;;;;31.48;28.60;;;15.20;90.10;;;;;;5035584;28;20471;-44
2023/06/22 02:29:33;;;;;;;32.00;29.02;;;15.20;90.20;;;;;;5049873;28;20438;-45
2023/06/22 02:32:09;;;;;;;32.83;29.75;;;15.20;90.20;;;;;;5040285;28;20056;-45
2023/06/22 02:34:36;;;;;;;36.75;33.33;;;15.10;90.30;;;;;;5045950;28;20031;-44
2023/06/22 02:37:05;;;;;;;37.22;33.60;;;15.10;90.30;;;;;;5056131;28;20032;-44
2023/06/22 02:39:34;;;;;;;38.63;34.90;;;15.10;90.30;;;;;;5056001;28;20028;-44
2023/06/22 02:42:05;;;;;;;40.13;36.22;;;15.10;90.50;;;;;;5055024;28;20037;-45
2023/06/22 02:44:32;;;;;;;36.47;33.08;;;15.10;90.60;;;;;;5045521;28;20029;-44
2023/06/22 02:47:13;;;;;;;36.28;32.95;;;15.10;90.60;;;;;;5052671;28;20043;-44
2023/06/22 02:49:41;;;;;;;36.67;33.17;;;15.10;90.50;;;;;;5047197;28;20112;-45
2023/06/22 02:52:09;;;;;;;39.97;36.03;;;15.00;90.50;;;;;;5055815;28;20048;-44
2023/06/22 02:54:36;;;;;;;40.50;36.80;;;15.00;90.50;;;;;;5049515;28;20029;-44
2023/06/22 02:57:13;;;;;;;39.88;36.17;;;15.00;90.60;;;;;;5055787;28;20029;-44
2023/06/22 02:59:41;;;;;;;40.60;36.88;;;15.00;90.90;;;;;;5055881;28;20100;-45
2023/06/22 03:02:08;;;;;;;42.45;38.50;;;15.00;91.10;;;;;;5052434;28;20350;-44
2023/06/22 03:04:35;;;;;;;39.83;36.10;;;15.00;91.30;;;;;;5032162;28;20388;-45
2023/06/22 03:07:03;;;;;;;44.22;39.88;;;15.00;91.10;;;;;;5032754;28;20025;-45
2023/06/22 03:09:30;;;;;;;44.67;40.47;;;15.00;90.90;;;;;;5053454;28;20025;-44
2023/06/22 03:11:59;;;;;;;41.72;37.72;;;15.00;90.90;;;;;;5041482;28;20513;-44
2023/06/22 03:14:25;;;;;;;41.22;37.13;;;15.00;91.00;;;;;;5055552;28;20037;-44
2023/06/22 03:16:52;;;;;;;43.67;39.47;;;15.00;91.00;;;;;;5037530;28;20059;-43
2023/06/22 03:19:21;;;;;;;38.10;34.38;;;15.00;91.00;;;;;;5041314;28;20033;-44
2023/06/22 03:21:49;;;;;;;39.33;35.28;;;15.00;91.00;;;;;;5052164;28;20049;-44
2023/06/22 03:24:15;;;;;;;40.55;36.78;;;15.00;90.90;;;;;;5055555;28;20107;-45
2023/06/22 03:26:48;;;;;;;38.90;35.03;;;15.00;90.90;;;;;;5055076;28;20395;-44
2023/06/22 03:29:17;;;;;;;37.90;34.17;;;15.10;90.90;;;;;;5050801;28;20037;-44
2023/06/22 03:31:45;;;;;;;42.00;38.00;;;15.10;91.00;;;;;;5048747;28;20132;-44
2023/06/22 03:34:12;;;;;;;38.75;35.05;;;15.10;90.90;;;;;;5037049;28;20346;-46
2023/06/22 03:36:38;;;;;;;39.08;35.47;;;15.20;91.00;;;;;;5055458;28;20049;-46
2023/06/22 03:39:05;;;;;;;38.72;34.90;;;15.20;90.90;;;;;;5054344;28;20474;-45
2023/06/22 03:41:31;;;;;;;36.38;32.58;;;15.20;90.90;;;;;;5049697;28;20047;-44
2023/06/22 03:44:02;;;;;;;35.70;32.15;;;15.20;90.90;;;;;;5054357;28;20029;-45
2023/06/22 03:46:29;;;;;;;35.17;31.70;;;15.20;90.80;;;;;;5038591;28;20029;-44
2023/06/22 03:48:58;;;;;;;33.25;30.05;;;15.30;90.80;;;;;;5042248;28;20139;-43
2023/06/22 03:51:25;;;;;;;34.75;31.45;;;15.30;90.80;;;;;;5055042;28;20057;-45
2023/06/22 03:53:52;;;;;;;34.80;31.52;;;15.30;90.80;;;;;;5055147;28;20378;-43
2023/06/22 03:56:20;;;;;;;35.13;31.92;;;15.30;90.80;;;;;;5037497;28;20024;-44
2023/06/22 03:58:48;;;;;;;35.38;31.75;;;15.40;90.70;;;;;;5036473;28;20032;-44
2023/06/22 04:01:14;;;;;;;39.58;35.38;;;15.40;90.80;;;;;;5037182;28;20060;-44
2023/06/22 04:03:41;;;;;;;39.83;35.70;;;15.40;90.70;;;;;;5053703;28;20509;-44
2023/06/22 04:06:09;;;;;;;42.47;38.22;;;15.50;90.80;;;;;;5040126;28;20112;-45
2023/06/22 04:08:36;;;;;;;43.95;39.75;;;15.60;90.80;;;;;;5048038;28;20067;-44
2023/06/22 04:11:06;;;;;;;45.35;40.65;;;15.60;90.80;;;;;;5048573;28;20026;-44
2023/06/22 04:13:32;;;;;;;42.35;38.08;;;15.60;90.70;;;;;;5054768;28;20048;-44
2023/06/22 04:16:01;;;;;;;44.42;40.30;;;15.70;90.90;;;;;;5050486;28;20486;-44
2023/06/22 04:18:34;;;;;;;39.17;35.05;;;15.70;90.90;;;;;;5054814;28;20021;-45
2023/06/22 04:21:02;;;;;;;41.15;37.10;;;15.80;91.00;;;;;;5050919;28;20412;-44
2023/06/22 04:23:29;;;;;;;42.85;38.33;;;15.90;91.10;;;;;;5053294;28;20032;-44
2023/06/22 04:25:56;;;;;;;44.45;38.30;;;15.90;91.10;;;;;;5043950;28;20033;-44
2023/06/22 04:28:25;;;;;;;38.78;34.75;;;16.00;91.20;;;;;;5050306;28;20162;-44
2023/06/22 04:30:51;;;;;;;40.47;35.92;;;16.00;91.20;;;;;;5036061;28;20158;-44
2023/06/22 04:33:18;;;;;;;41.50;37.22;;;16.10;91.20;;;;;;5048921;28;20451;-44
2023/06/22 04:35:48;;;;;;;42.58;38.35;;;16.20;91.20;;;;;;5042883;28;20166;-45
2023/06/22 04:38:17;;;;;;;38.70;34.92;;;16.40;91.30;;;;;;5011577;28;20033;-44
2023/06/22 04:40:47;;;;;;;39.63;35.78;;;16.50;91.30;;;;;;5033819;28;20018;-44
2023/06/22 04:43:14;;;;;;;35.63;32.00;;;16.60;91.20;;;;;;5032327;28;20446;-45
2023/06/22 04:45:41;;;;;;;35.65;31.98;;;16.70;91.20;;;;;;5027787;28;20040;-45
2023/06/22 04:48:08;;;;;;;41.30;36.83;;;16.90;91.20;;;;;;5030299;28;20025;-47
2023/06/22 04:50:38;;;;;;;37.10;33.55;;;16.90;91.00;;;;;;5032087;28;20021;-45
2023/06/22 04:53:12;;;;;;;41.58;36.90;;;17.00;90.90;;;;;;5033300;28;20025;-45
2023/06/22 04:55:41;;;;;;;35.42;31.90;;;17.10;90.90;;;;;;5033697;28;20014;-44
2023/06/22 04:58:12;;;;;;;42.63;38.40;;;17.20;90.90;;;;;;5030824;28;20017;-44
2023/06/22 05:00:40;;;;;;;32.10;29.00;;;17.20;90.80;;;;;;5029587;28;20021;-45
2023/06/22 05:03:10;;;;;;;36.70;33.10;;;17.40;91.00;;;;;;5033266;28;20028;-44
2023/06/22 05:05:38;;;;;;;35.92;32.22;;;17.50;91.10;;;;;;5033645;28;20059;-45
2023/06/22 05:08:06;;;;;;;41.83;37.50;;;17.50;91.10;;;;;;5032185;28;20036;-44
2023/06/22 05:10:33;;;;;;;38.27;34.57;;;17.60;91.00;;;;;;5031940;28;20029;-47
2023/06/22 05:13:00;;;;;;;39.22;35.53;;;17.60;90.90;;;;;;5031004;28;20490;-44
2023/06/22 05:15:30;;;;;;;38.88;35.17;;;17.60;90.80;;;;;;5033728;28;20030;-45
2023/06/22 05:18:04;;;;;;;34.70;31.20;;;17.70;90.90;;;;;;5041168;28;20406;-45
2023/06/22 05:20:34;;;;;;;35.78;32.25;;;17.70;90.90;;;;;;5039963;28;20366;-44
2023/06/22 05:23:01;;;;;;;37.80;34.00;;;17.80;90.90;;;;;;5049546;28;20028;-45
2023/06/22 05:25:32;;;;;;;33.50;30.02;;;17.90;91.00;;;;;;5048164;28;20041;-44
2023/06/22 05:27:58;;;;;;;32.50;29.15;;;17.90;91.00;;;;;;5029326;28;20025;-47
2023/06/22 05:30:26;;;;;;;30.35;27.33;;;18.00;91.00;;;;;;5037238;28;20042;-46
2023/06/22 05:32:54;;;;;;;32.42;29.35;;;18.10;91.00;;;;;;5011946;28;20120;-44
2023/06/22 05:35:22;;;;;;;34.58;31.23;;;18.20;91.00;;;;;;5027790;28;20044;-46
2023/06/22 05:37:49;;;;;;;29.23;26.35;;;18.20;91.00;;;;;;5026956;28;20017;-45
2023/06/22 05:40:19;;;;;;;29.23;26.48;;;18.20;90.90;;;;;;5037683;28;20025;-47
2023/06/22 05:42:46;;;;;;;23.85;21.65;;;18.30;90.80;;;;;;5041538;28;20030;-45
2023/06/22 05:45:15;;;;;;;25.08;22.60;;;18.30;90.90;;;;;;5047297;28;20057;-45
2023/06/22 05:47:45;;;;;;;27.67;23.88;;;18.40;90.70;;;;;;5048550;28;20033;-46
2023/06/22 05:50:13;;;;;;;27.10;24.15;;;18.50;90.80;;;;;;5037602;28;20029;-45
2023/06/22 05:52:40;;;;;;;25.23;22.92;;;18.60;90.60;;;;;;5030720;28;20026;-46
2023/06/22 05:55:08;;;;;;;23.08;20.80;;;18.80;89.80;;;;;;5049091;28;20013;-45
2023/06/22 05:57:36;;;;;;;17.67;15.80;;;18.90;88.90;;;;;;5034514;28;20049;-47
2023/06/22 06:00:10;;;;;;;19.38;17.48;;;18.90;88.60;;;;;;5031614;28;20057;-48
2023/06/22 06:02:43;;;;;;;14.23;12.82;;;19.20;87.90;;;;;;5032947;28;20030;-47
2023/06/22 06:05:15;;;;;;;13.18;11.77;;;19.50;87.90;;;;;;5031459;28;20470;-45
2023/06/22 06:07:43;;;;;;;15.52;12.60;;;19.70;86.50;;;;;;5031072;28;20099;-45
2023/06/22 06:10:14;;;;;;;12.60;9.20;;;19.90;85.40;;;;;;5031376;28;20038;-46
2023/06/22 06:12:42;;;;;;;14.02;12.65;;;20.10;85.00;;;;;;5027583;28;20132;-46
2023/06/22 06:15:10;;;;;;;10.88;9.68;;;20.40;84.20;;;;;;5029711;28;20033;-47
2023/06/22 06:17:56;;;;;;;12.18;9.50;;;20.60;83.70;;;;;;5029031;28;20120;-47
2023/06/22 06:20:25;;;;;;;10.63;9.15;;;20.90;83.10;;;;;;5027211;28;20493;-47
2023/06/22 06:22:52;;;;;;;12.05;9.18;;;21.10;81.00;;;;;;5025743;28;20041;-47
2023/06/22 06:25:21;;;;;;;8.95;7.80;;;21.20;79.80;;;;;;5031245;28;20060;-47
2023/06/22 06:27:50;;;;;;;10.30;9.32;;;21.40;80.00;;;;;;5023425;28;20071;-48
2023/06/22 06:30:21;;;;;;;10.13;9.07;;;21.40;79.80;;;;;;5031242;28;20059;-47
2023/06/22 06:32:59;;;;;;;9.80;8.23;;;21.50;79.80;;;;;;5026657;28;20044;-48
2023/06/22 06:35:27;;;;;;;10.13;9.18;;;21.60;79.50;;;;;;5027185;28;20033;-48
2023/06/22 06:37:54;;;;;;;11.93;10.70;;;21.70;79.20;;;;;;5032248;28;20416;-48
2023/06/22 06:40:24;;;;;;;11.02;9.50;;;21.60;77.50;;;;;;5030418;28;20030;-48
2023/06/22 06:42:50;;;;;;;;;;;21.40;76.80;;;;;;5041504;28;20033;-49
2023/06/22 06:45:23;;;;;;;13.18;9.82;;;21.40;78.00;;;;;;5030257;28;19958;-47
2023/06/22 06:47:51;;;;;;;9.77;8.30;;;21.50;77.30;;;;;;5038319;28;20044;-48
2023/06/22 06:50:17;;;;;;;11.32;8.52;;;21.40;78.00;;;;;;5028426;28;20037;-48
2023/06/22 06:52:47;;;;;;;11.98;10.55;;;21.50;78.40;;;;;;5039178;28;20129;-47
2023/06/22 06:55:17;;;;;;;13.23;10.88;;;21.70;78.40;;;;;;5035078;28;20114;-48
2023/06/22 06:57:43;;;;;;;11.10;9.90;;;21.90;77.70;;;;;;5035015;28;20068;-48
2023/06/22 07:00:15;;;;;;;10.27;8.98;;;21.90;77.00;;;;;;5032768;28;20483;-53
2023/06/22 07:02:43;;;;;;;11.43;8.35;;;21.90;78.30;;;;;;5030702;28;20034;-53
2023/06/22 07:05:13;;;;;;;9.57;7.38;;;22.00;78.30;;;;;;5016577;28;20037;-49
2023/06/22 07:07:55;;;;;;;8.68;7.75;;;22.00;78.20;;;;;;5032239;28;20055;-48
2023/06/22 07:10:23;;;;;;;10.82;8.20;;;22.10;77.00;;;;;;5032994;28;20084;-51
2023/06/22 07:12:49;;;;;;;9.05;8.15;;;22.10;76.80;;;;;;5032529;28;20037;-48
2023/06/22 07:15:19;;;;;;;11.40;7.43;;;22.20;77.20;;;;;;5033023;28;20052;-48
2023/06/22 07:17:48;;;;;;;7.65;6.82;;;22.40;76.50;;;;;;5022581;28;20060;-48
2023/06/22 07:20:16;;;;;;;8.45;7.32;;;22.40;76.00;;;;;;5022969;28;20084;-51
2023/06/22 07:22:46;;;;;;;10.77;9.23;;;22.50;75.90;;;;;;5024433;28;20021;-48
2023/06/22 07:25:19;;;;;;;10.00;6.28;;;22.90;75.70;;;;;;5029880;28;20756;-55
2023/06/22 07:28:01;;;;;;;7.00;5.93;;;23.30;73.90;;;;;;5032129;28;20029;-53
2023/06/22 07:30:29;;;;;;;7.32;6.05;;;23.60;72.60;;;;;;5046383;28;20037;-49
2023/06/22 07:32:58;;;;;;;6.20;5.60;;;23.80;71.60;;;;;;5031276;28;20036;-52
2023/06/22 07:35:24;;;;;;;7.38;5.72;;;24.10;72.20;;;;;;5027580;28;20022;-48
2023/06/22 07:37:50;;;;;;;7.70;5.40;;;24.50;70.20;;;;;;5031381;28;20040;-50
2023/06/22 07:40:17;;;;;;;6.35;4.68;;;24.80;68.90;;;;;;5027231;28;20033;-49
2023/06/22 07:42:44;;;;;;;6.60;4.53;;;25.00;67.10;;;;;;5032207;28;20034;-54
2023/06/22 07:45:12;;;;;;;7.75;4.53;;;25.30;66.00;;;;;;5007298;28;20048;-54
2023/06/22 07:47:39;;;;;;;7.35;4.40;;;25.60;64.60;;;;;;5035358;28;20045;-48
2023/06/22 07:50:11;;;;;;;6.57;3.95;;;25.80;64.30;;;;;;5033835;28;20057;-54
2023/06/22 07:52:42;;;;;;;6.53;4.68;;;25.70;61.50;;;;;;5029574;28;20053;-53
2023/06/22 07:55:10;;;;;;;6.18;3.58;;;25.90;62.80;;;;;;5020691;28;20518;-49
2023/06/22 07:57:41;;;;;;;5.95;4.35;;;26.30;63.10;;;;;;5031174;28;20029;-49
2023/06/22 08:00:14;;;;;;;6.30;4.63;;;26.50;62.00;;;;;;5031239;28;20045;-52
2023/06/22 08:02:44;;;;;;;7.50;5.13;;;26.40;62.10;;;;;;5006959;28;20110;-53
2023/06/22 08:05:13;;;;;;;6.00;5.25;;;26.10;61.80;;;;;;5029206;28;20046;-48
2023/06/22 08:07:39;;;;;;;6.45;5.22;;;26.10;62.40;;;;;;5031069;28;20044;-50
2023/06/22 08:10:05;;;;;;;5.88;5.05;;;26.40;60.80;;;;;;5031145;28;20025;-49
2023/06/22 08:12:33;;;;;;;7.78;6.78;;;26.80;60.70;;;;;;5021589;28;20033;-50
2023/06/22 08:15:00;;;;;;;6.43;5.32;;;26.70;61.20;;;;;;5027065;28;20571;-48
2023/06/22 08:17:27;;;;;;;8.48;7.43;;;26.90;60.50;;;;;;5024802;28;20051;-50
2023/06/22 08:19:53;;;;;;;9.52;6.00;;;26.60;60.50;;;;;;5028962;28;20044;-49
2023/06/22 08:22:22;;;;;;;10.55;5.85;;;26.40;60.20;;;;;;5026924;28;20479;-48
2023/06/22 08:24:51;;;;;;;7.53;5.70;;;26.40;60.70;;;;;;5026666;28;20038;-49
2023/06/22 08:27:21;;;;;;;7.35;5.47;;;26.60;59.80;;;;;;5031084;28;20033;-48
2023/06/22 08:29:49;;;;;;;9.93;6.05;;;26.80;58.30;;;;;;5033271;28;20136;-50
2023/06/22 08:32:21;;;;;;;8.98;4.85;;;26.80;58.50;;;;;;5028262;28;20467;-52
2023/06/22 08:34:48;;;;;;;7.63;5.72;;;26.60;59.60;;;;;;5032085;28;20068;-48
2023/06/22 08:37:16;;;;;;;7.03;5.97;;;26.70;59.90;;;;;;5024450;28;20021;-54
2023/06/22 08:39:44;;;;;;;7.13;5.82;;;27.00;58.20;;;;;;5038912;28;20040;-50
2023/06/22 08:42:16;;;;;;;6.22;5.15;;;27.40;58.40;;;;;;5017532;28;20063;-49
2023/06/22 08:44:45;;;;;;;7.10;6.38;;;27.60;57.50;;;;;;5029704;28;20025;-48
2023/06/22 08:47:10;;;;;;;7.97;5.38;;;27.60;57.50;;;;;;5026341;28;20870;-50
2023/06/22 08:49:36;;;;;;;7.82;6.70;;;28.00;57.60;;;;;;5027755;28;20038;-48
2023/06/22 08:52:03;;;;;;;6.45;5.80;;;27.80;55.70;;;;;;5031324;28;20036;-53
2023/06/22 08:54:29;;;;;;;8.50;5.30;;;27.90;56.90;;;;;;5040675;28;20045;-49
2023/06/22 08:56:58;;;;;;;5.95;4.70;;;28.10;57.00;;;;;;5028572;28;20035;-48
2023/06/22 08:59:25;;;;;;;6.32;5.57;;;28.00;56.20;;;;;;5027362;28;20429;-49
2023/06/22 09:01:54;;;;;;;7.30;5.20;;;28.10;57.60;;;;;;5027733;28;20037;-49
2023/06/22 09:04:22;;;;;;;22.02;6.85;;;28.10;57.50;;;;;;5027265;28;20122;-49
2023/06/22 09:06:49;;;;;;;5.75;4.32;;;28.00;57.40;;;;;;5034858;28;20042;-52
2023/06/22 09:09:18;;;;;;;5.43;4.28;;;28.20;57.20;;;;;;5025413;28;20033;-52
2023/06/22 09:11:44;;;;;;;5.65;4.90;;;28.60;56.70;;;;;;5019757;28;20042;-48
2023/06/22 09:14:14;;;;;;;6.35;5.25;;;28.80;55.70;;;;;;5026988;28;20044;-48
2023/06/22 09:16:39;;;;;;;;;;;28.60;55.60;;;;;;5026790;28;20080;-51
2023/06/22 09:19:07;;;;;;;6.18;4.40;;;28.80;53.50;;;;;;5037163;28;19952;-49
2023/06/22 09:21:41;;;;;;;5.63;4.05;;;28.20;56.70;;;;;;5032794;28;20068;-52
2023/06/22 09:24:08;;;;;;;4.93;4.28;;;28.30;54.10;;;;;;5027270;28;20040;-51
2023/06/22 09:26:35;;;;;;;6.22;4.40;;;27.90;55.10;;;;;;5028616;28;20119;-53
2023/06/22 09:29:05;;;;;;;7.55;3.65;;;28.00;53.90;;;;;;5032639;28;20098;-49
2023/06/22 09:31:33;;;;;;;5.47;4.00;;;27.90;55.50;;;;;;5018396;28;20038;-49
2023/06/22 09:34:00;;;;;;;4.78;3.40;;;27.90;53.20;;;;;;5029685;28;20033;-50
2023/06/22 09:36:27;;;;;;;7.00;3.85;;;28.00;57.00;;;;;;5012162;28;20709;-51
2023/06/22 09:38:58;;;;;;;4.15;3.15;;;28.40;53.40;;;;;;5029443;28;20030;-54
2023/06/22 09:41:27;;;;;;;5.97;3.67;;;28.40;54.20;;;;;;5023732;28;20730;-54
2023/06/22 09:43:55;;;;;;;6.45;4.10;;;28.60;55.30;;;;;;5031991;28;20040;-53
2023/06/22 09:46:24;;;;;;;8.25;4.63;;;28.20;56.00;;;;;;5021552;28;20033;-51
2023/06/22 09:48:52;;;;;;;5.45;4.10;;;28.10;59.50;;;;;;5034591;28;20048;-53
2023/06/22 09:51:21;;;;;;;6.82;4.70;;;27.70;58.40;;;;;;5027302;28;20100;-54
2023/06/22 09:53:47;;;;;;;6.38;4.78;;;27.80;57.70;;;;;;5022274;28;20038;-52
2023/06/22 09:56:16;;;;;;;7.28;3.95;;;27.90;57.00;;;;;;5029567;28;20044;-50
2023/06/22 09:58:52;;;;;;;5.90;4.20;;;27.80;57.50;;;;;;5024646;28;20080;-52
2023/06/22 10:01:20;;;;;;;6.75;4.00;;;27.60;58.10;;;;;;5005717;28;20109;-52
2023/06/22 10:03:46;;;;;;;6.38;4.40;;;27.80;56.90;;;;;;5030444;28;20351;-54
2023/06/22 10:06:13;;;;;;;6.82;4.35;;;27.70;58.10;;;;;;5028742;28;20041;-53
2023/06/22 10:08:40;;;;;;;5.40;3.88;;;27.40;58.10;;;;;;5016032;28;20399;-52
2023/06/22 10:11:08;;;;;;;6.38;4.18;;;27.00;59.10;;;;;;5021152;28;20037;-50
2023/06/22 10:13:35;;;;;;;7.55;4.63;;;26.80;60.00;;;;;;5024125;28;20336;-50
2023/06/22 10:16:01;;;;;;;6.55;4.40;;;26.70;58.30;;;;;;5039257;28;20086;-50
2023/06/22 10:18:28;;;;;;;5.25;3.42;;;26.60;59.50;;;;;;5031434;28;20034;-50
2023/06/22 10:20:54;;;;;;;5.95;3.80;;;26.80;61.30;;;;;;5029752;28;20021;-55
2023/06/22 10:23:20;;;;;;;6.18;4.38;;;26.70;58.50;;;;;;5026194;28;20048;-52
2023/06/22 10:25:48;;;;;;;8.18;3.95;;;26.50;58.90;;;;;;5026970;28;20050;-49
2023/06/22 10:28:16;;;;;;;8.82;4.35;;;26.70;61.00;;;;;;5029626;28;21782;-56
2023/06/22 10:30:44;;;;;;;6.60;4.72;;;26.50;58.60;;;;;;5033797;28;20031;-49
2023/06/22 10:33:12;;;;;;;7.18;4.20;;;26.10;59.60;;;;;;5035283;28;20038;-50
2023/06/22 10:35:42;;;;;;;5.68;4.10;;;26.20;61.60;;;;;;5030775;28;20033;-51
2023/06/22 10:38:10;;;;;;;5.32;4.18;;;26.30;61.80;;;;;;5026796;28;20112;-50
2023/06/22 10:40:39;;;;;;;6.78;4.38;;;26.40;61.80;;;;;;5030389;28;20026;-53
2023/06/22 10:43:08;;;;;;;21.45;7.03;;;26.60;63.90;;;;;;5034444;28;20025;-55
2023/06/22 10:45:36;;;;;;;8.70;5.60;;;26.70;61.70;;;;;;5019510;28;20034;-54
2023/06/22 10:48:02;;;;;;;6.00;4.20;;;26.90;60.40;;;;;;5031366;28;20029;-50
2023/06/22 10:50:29;;;;;;;7.47;4.18;;;26.90;59.80;;;;;;5028342;28;20025;-55
2023/06/22 10:52:56;;;;;;;5.88;4.45;;;26.70;61.50;;;;;;5024334;28;20061;-53
2023/06/22 10:55:23;;;;;;;6.07;5.00;;;26.70;62.00;;;;;;5032332;28;20115;-55
2023/06/22 10:57:50;;;;;;;5.80;4.68;;;26.70;60.10;;;;;;5025988;28;20037;-56
2023/06/22 11:00:17;;;;;;;5.75;4.20;;;26.40;61.10;;;;;;5023968;28;20040;-50
2023/06/22 11:02:44;;;;;;;6.07;4.45;;;26.40;62.10;;;;;;5028805;28;20052;-51
2023/06/22 11:05:10;;;;;;;6.25;4.25;;;26.40;62.10;;;;;;5032388;28;20060;-53
2023/06/22 11:07:38;;;;;;;5.28;4.22;;;26.40;61.00;;;;;;5033140;28;20032;-53
2023/06/22 11:10:07;;;;;;;4.05;3.60;;;26.20;64.00;;;;;;5031530;28;20033;-50
2023/06/22 11:12:34;;;;;;;6.60;4.53;;;26.30;62.20;;;;;;5029321;28;20031;-51
2023/06/22 11:14:59;;;;;;;7.43;4.45;;;26.10;62.20;;;;;;5029460;28;20045;-49
2023/06/22 11:17:26;;;;;;;5.75;4.13;;;26.40;61.70;;;;;;5042256;28;20114;-48
2023/06/22 11:19:54;;;;;;;6.50;3.95;;;26.20;61.30;;;;;;5029520;28;20336;-50
2023/06/22 11:22:19;;;;;;;6.25;4.90;;;26.00;62.50;;;;;;5042350;28;20029;-52
2023/06/22 11:24:51;;;;;;;7.20;4.85;;;26.10;62.60;;;;;;5026372;28;20026;-48
2023/06/22 11:27:16;;;;;;;6.97;5.70;;;25.90;63.10;;;;;;5033954;28;20372;-48
2023/06/22 11:29:45;;;;;;;5.90;4.38;;;26.00;62.50;;;;;;5030907;28;20032;-48
2023/06/22 11:32:12;;;;;;;8.88;4.53;;;25.80;64.30;;;;;;5031724;28;20108;-48
2023/06/22 11:34:43;;;;;;;5.40;4.15;;;25.80;63.70;;;;;;5015356;28;20025;-49
2023/06/22 11:37:10;;;;;;;5.90;5.25;;;25.60;64.30;;;;;;5026531;28;20057;-48
2023/06/22 11:39:38;;;;;;;7.43;5.05;;;25.80;63.80;;;;;;5030715;28;20112;-49
2023/06/22 11:42:05;;;;;;;7.28;5.82;;;25.90;61.20;;;;;;5047083;28;20044;-49
2023/06/22 11:44:32;;;;;;;8.10;6.20;;;25.70;62.60;;;;;;5025909;28;20041;-52
2023/06/22 11:47:00;;;;;;;7.65;5.68;;;25.60;63.80;;;;;;5023541;28;20040;-49
2023/06/22 11:49:32;;;;;;;6.40;5.80;;;25.60;64.30;;;;;;5028168;28;20073;-50
2023/06/22 11:51:59;;;;;;;6.68;5.68;;;25.40;64.00;;;;;;5027155;28;20296;-50
2023/06/22 11:54:31;;;;;;;10.15;5.13;;;25.20;62.90;;;;;;5029208;28;20032;-54
2023/06/22 11:57:00;;;;;;;6.78;5.15;;;25.40;66.10;;;;;;5034530;28;20029;-55
2023/06/22 11:59:28;;;;;;;;;;;25.30;62.30;;;;;;5037755;28;20029;-52
2023/06/22 12:01:58;;;;;;;6.82;4.95;;;25.10;62.70;;;;;;5028051;28;19918;-50
2023/06/22 12:04:26;;;;;;;5.68;4.97;;;24.90;61.60;;;;;;5046219;28;20040;-52
2023/06/22 12:06:54;;;;;;;7.45;3.78;;;24.90;61.60;;;;;;5027854;28;20057;-50
2023/06/22 12:09:23;;;;;;;7.53;4.82;;;25.00;62.90;;;;;;5028744;28;20026;-56
2023/06/22 12:11:50;;;;;;;5.72;4.30;;;24.90;61.90;;;;;;5033052;28;20052;-54
2023/06/22 12:14:17;;;;;;;6.53;4.50;;;24.60;60.40;;;;;;5025295;28;20029;-52
2023/06/22 12:16:47;;;;;;;7.07;4.20;;;24.60;62.80;;;;;;5039964;28;20057;-51
2023/06/22 12:19:17;;;;;;;6.78;6.13;;;24.40;61.80;;;;;;5033274;28;20030;-51
2023/06/22 12:21:45;;;;;;;6.95;5.03;;;24.40;63.40;;;;;;5018590;28;20038;-54
2023/06/22 12:24:11;;;;;;;9.18;5.15;;;24.40;64.20;;;;;;5025623;28;20425;-54
2023/06/22 12:26:39;;;;;;;7.32;4.90;;;24.30;63.20;;;;;;5030255;28;20029;-51
2023/06/22 12:29:09;;;;;;;7.65;5.30;;;24.20;62.60;;;;;;5029518;28;20021;-54
2023/06/22 12:31:39;;;;;;;6.75;5.07;;;24.40;62.30;;;;;;5031079;28;20167;-56
2023/06/22 12:34:06;;;;;;;6.85;4.60;;;24.00;63.50;;;;;;5025442;28;20498;-54
2023/06/22 12:36:34;;;;;;;7.18;5.60;;;24.20;65.60;;;;;;5021135;28;20092;-53
2023/06/22 12:39:01;;;;;;;7.47;4.78;;;24.10;64.70;;;;;;5027664;28;20041;-53
2023/06/22 12:41:29;;;;;;;10.48;5.03;;;23.90;64.80;;;;;;5028012;28;20033;-49
2023/06/22 12:43:57;;;;;;;12.02;5.15;;;23.90;65.20;;;;;;5021963;28;20057;-52
2023/06/22 12:46:24;;;;;;;7.70;6.00;;;23.80;65.80;;;;;;5026556;28;20038;-52
2023/06/22 12:48:54;;;;;;;8.25;5.70;;;23.90;65.50;;;;;;5021413;28;20048;-49